Gibraltar, Michigan
Current Conditions -  °F | °C
As of 1:54 AM on Saturday 25 Oct 2014 (Local Time) from KONZ Reporting Station
Clear Clear  
Wind Chill: 11°   Ceiling: Unl
Heat Index: 11°   Visibility: 10mi
Dew Point:   Wind: 5mph
Humidity: 82%   Direction: 190°S
Pressure: 29.93"   Gusts: NA
Location:  42.0725°N, 83.2169°W
Report Text: KONZ 250554Z AUTO 19004KT 10SM CLR 11/08 A2993 RMK AO2
Loading
Personal Weather Stations






























Interactive Weather Map
Tropical Storm Tracking
New forecast layout! Learn more

10-Day Weather Forecast

Advertisements
Track Severe Weather on mobile